Time;durP1;ratioP1;P1;durP2;ratioP2;P2;SDS_P1;SDS_P2;PMS_P1;PMS_P2;Temp;Humidity;BMP_temperature;BMP_pressure;BME280_temperature;BME280_humidity;BME280_pressure;Samples;Min_cycle;Max_cycle;Signal;HPM_P1;HPM_P2
2023/06/05 00:00:06;;;;;;;2.25;1.42;;;17.70;52.40;;;;;;5037616;28;20292;-64
2023/06/05 00:02:35;;;;;;;1.52;1.35;;;17.70;52.70;;;;;;5034690;28;20316;-65
2023/06/05 00:05:01;;;;;;;2.75;1.40;;;17.60;52.50;;;;;;5052419;28;20170;-65
2023/06/05 00:07:27;;;;;;;1.92;1.52;;;17.60;52.70;;;;;;5038357;28;20188;-65
2023/06/05 00:09:57;;;;;;;2.70;1.40;;;17.60;53.10;;;;;;5037689;28;20192;-66
2023/06/05 00:12:23;;;;;;;2.00;1.60;;;17.50;53.20;;;;;;5037804;28;20177;-65
2023/06/05 00:14:48;;;;;;;1.80;1.50;;;17.50;52.90;;;;;;5045159;28;20205;-67
2023/06/05 00:17:14;;;;;;;2.58;1.60;;;17.40;52.80;;;;;;5053350;28;20191;-65
2023/06/05 00:19:40;;;;;;;2.40;1.73;;;17.40;53.00;;;;;;5028667;28;20521;-65
2023/06/05 00:22:08;;;;;;;3.83;1.88;;;17.40;53.20;;;;;;5032563;28;20186;-65
2023/06/05 00:24:33;;;;;;;2.58;1.77;;;17.40;53.40;;;;;;5035571;28;20230;-65
2023/06/05 00:27:04;;;;;;;2.47;1.80;;;17.40;53.30;;;;;;5036950;28;20197;-65
2023/06/05 00:29:30;;;;;;;3.88;1.92;;;17.30;53.30;;;;;;5054410;28;20231;-65
2023/06/05 00:31:55;;;;;;;4.05;1.88;;;17.40;53.60;;;;;;5034026;28;20181;-65
2023/06/05 00:34:21;;;;;;;3.25;1.70;;;17.30;53.50;;;;;;5033121;28;20242;-65
2023/06/05 00:36:50;;;;;;;4.20;1.60;;;17.40;53.60;;;;;;5026384;28;20196;-64
2023/06/05 00:39:18;;;;;;;2.25;1.65;;;17.30;53.60;;;;;;5048087;28;20206;-62
2023/06/05 00:41:45;;;;;;;2.65;1.83;;;17.30;54.00;;;;;;5037518;28;20456;-64
2023/06/05 00:44:17;;;;;;;2.25;1.50;;;17.30;54.00;;;;;;5052319;28;20243;-63
2023/06/05 00:46:43;;;;;;;3.13;2.03;;;17.20;54.00;;;;;;5035922;28;20224;-65
2023/06/05 00:49:09;;;;;;;2.45;1.63;;;17.20;54.30;;;;;;5034614;28;20194;-62
2023/06/05 00:51:35;;;;;;;2.28;1.83;;;17.10;54.30;;;;;;5032591;28;20201;-64
2023/06/05 00:54:01;;;;;;;2.95;1.70;;;17.10;54.30;;;;;;5052008;28;20189;-65
2023/06/05 00:56:27;;;;;;;4.97;1.85;;;17.00;54.40;;;;;;5052449;28;20181;-67
2023/06/05 00:58:54;;;;;;;2.38;1.75;;;16.90;54.40;;;;;;5039085;28;20236;-63
2023/06/05 01:01:21;;;;;;;2.25;1.88;;;16.90;54.40;;;;;;5030414;28;20272;-65
2023/06/05 01:03:49;;;;;;;1.85;1.65;;;16.80;54.40;;;;;;5040884;28;20262;-65
2023/06/05 01:06:17;;;;;;;3.17;1.70;;;16.80;54.40;;;;;;5036152;28;20195;-64
2023/06/05 01:08:45;;;;;;;1.77;1.50;;;16.70;54.30;;;;;;5037120;28;20204;-64
2023/06/05 01:11:48;;;;;;;1.45;1.33;;;16.70;54.40;;;;;;5046937;28;20197;-61
2023/06/05 01:14:33;;;;;;;2.75;1.50;;;16.60;55.50;;;;;;5038997;28;20180;-65
2023/06/05 01:17:02;;;;;;;2.28;1.40;;;16.50;55.10;;;;;;5055838;28;20216;-64
2023/06/05 01:19:31;;;;;;;2.30;1.63;;;16.50;54.50;;;;;;5053921;28;20213;-65
2023/06/05 01:22:01;;;;;;;2.00;1.60;;;16.40;54.70;;;;;;5046178;28;20200;-65
2023/06/05 01:24:29;;;;;;;1.90;1.52;;;16.40;55.10;;;;;;5026461;28;20182;-65
2023/06/05 01:27:00;;;;;;;2.00;1.50;;;16.40;55.00;;;;;;5040086;28;20181;-61
2023/06/05 01:30:02;;;;;;;1.90;1.50;;;16.30;55.00;;;;;;5040199;28;20203;-65
2023/06/05 01:32:36;;;;;;;2.53;1.70;;;16.30;55.80;;;;;;4952658;28;20208;-65
2023/06/05 01:35:06;;;;;;;4.35;2.40;;;16.30;55.40;;;;;;5040351;28;20259;-65
2023/06/05 01:37:40;;;;;;;2.63;1.83;;;16.20;55.40;;;;;;5063960;28;20203;-65
2023/06/05 01:40:13;;;;;;;2.38;1.67;;;16.20;55.40;;;;;;5047184;28;20320;-63
2023/06/05 01:42:40;;;;;;;2.63;1.80;;;16.20;55.90;;;;;;5035278;28;20201;-62
2023/06/05 01:45:07;;;;;;;2.33;1.58;;;16.10;55.70;;;;;;5055568;28;20174;-65
2023/06/05 01:47:37;;;;;;;1.73;1.40;;;16.10;55.80;;;;;;5037448;28;20182;-65
2023/06/05 01:50:03;;;;;;;1.45;1.25;;;16.00;56.20;;;;;;5041088;28;20227;-64
2023/06/05 01:52:28;;;;;;;2.50;1.80;;;16.00;56.40;;;;;;5040229;28;20181;-65
2023/06/05 01:55:00;;;;;;;2.42;1.50;;;16.00;55.90;;;;;;5038712;28;20207;-63
2023/06/05 01:57:29;;;;;;;2.63;1.65;;;16.00;56.50;;;;;;5039002;28;20185;-65
2023/06/05 01:59:55;;;;;;;2.08;1.38;;;15.90;56.50;;;;;;5039711;28;20224;-65
2023/06/05 02:02:21;;;;;;;2.13;1.60;;;15.80;56.30;;;;;;5036253;28;20487;-62
2023/06/05 02:04:50;;;;;;;2.20;1.50;;;15.90;56.70;;;;;;5029498;28;20211;-65
2023/06/05 02:07:21;;;;;;;2.70;1.73;;;15.90;56.90;;;;;;5056828;28;20212;-65
2023/06/05 02:09:51;;;;;;;2.05;1.63;;;15.90;56.60;;;;;;5041253;28;20245;-65
2023/06/05 02:12:19;;;;;;;3.58;1.48;;;15.80;56.90;;;;;;5034448;28;20181;-65
2023/06/05 02:14:48;;;;;;;1.95;1.40;;;15.80;56.80;;;;;;5050996;28;20205;-65
2023/06/05 02:17:16;;;;;;;2.80;1.90;;;15.80;57.10;;;;;;5055774;28;20330;-65
2023/06/05 02:19:44;;;;;;;1.60;1.40;;;15.80;56.90;;;;;;5049629;28;20283;-65
2023/06/05 02:22:11;;;;;;;1.85;1.50;;;15.70;57.10;;;;;;5044640;28;20194;-63
2023/06/05 02:24:39;;;;;;;1.83;1.55;;;15.70;57.20;;;;;;5040071;28;20284;-63
2023/06/05 02:27:05;;;;;;;1.60;1.50;;;15.70;57.50;;;;;;5056184;28;20232;-63
2023/06/05 02:29:32;;;;;;;2.03;1.40;;;15.60;57.50;;;;;;5038858;28;20177;-65
2023/06/05 02:31:58;;;;;;;2.05;1.50;;;15.60;57.60;;;;;;5039825;28;20181;-63
2023/06/05 02:34:26;;;;;;;2.58;1.48;;;15.60;57.60;;;;;;5052731;28;20195;-64
2023/06/05 02:36:51;;;;;;;1.75;1.40;;;15.50;57.70;;;;;;5024987;28;20182;-65
2023/06/05 02:39:19;;;;;;;2.58;1.65;;;15.50;58.00;;;;;;5031283;28;20213;-65
2023/06/05 02:41:45;;;;;;;1.95;1.55;;;15.50;58.20;;;;;;5055790;28;20189;-65
2023/06/05 02:44:10;;;;;;;2.20;1.50;;;15.40;58.00;;;;;;5055481;28;20184;-64
2023/06/05 02:46:36;;;;;;;2.50;1.50;;;15.40;58.10;;;;;;5039069;28;20196;-65
2023/06/05 02:49:02;;;;;;;2.70;1.88;;;15.30;58.10;;;;;;5038773;28;20177;-63
2023/06/05 02:51:30;;;;;;;1.98;1.50;;;15.30;58.40;;;;;;5038180;28;20189;-65
2023/06/05 02:53:55;;;;;;;4.18;1.75;;;15.20;58.50;;;;;;5037475;28;20194;-65
2023/06/05 02:56:26;;;;;;;1.92;1.50;;;15.10;58.40;;;;;;5032694;28;20311;-65
2023/06/05 02:58:52;;;;;;;3.72;1.40;;;15.10;58.50;;;;;;5053231;28;20206;-65
2023/06/05 03:01:18;;;;;;;2.42;1.50;;;15.00;58.60;;;;;;5055963;28;20215;-65
2023/06/05 03:03:44;;;;;;;2.00;1.45;;;15.00;58.70;;;;;;5054711;28;20165;-61
2023/06/05 03:06:11;;;;;;;2.97;1.73;;;15.00;58.90;;;;;;5037453;28;20183;-63
2023/06/05 03:08:37;;;;;;;2.88;1.80;;;14.90;59.00;;;;;;5034990;28;20178;-64
2023/06/05 03:11:06;;;;;;;4.03;2.20;;;14.80;59.00;;;;;;5037964;28;20192;-65
2023/06/05 03:13:35;;;;;;;2.75;1.80;;;14.80;59.20;;;;;;5038138;28;20216;-65
2023/06/05 03:16:03;;;;;;;1.67;1.50;;;14.70;59.10;;;;;;5036812;28;20187;-66
2023/06/05 03:18:31;;;;;;;1.80;1.50;;;14.70;59.40;;;;;;5054466;28;20335;-65
2023/06/05 03:20:57;;;;;;;1.95;1.52;;;14.60;59.50;;;;;;5037097;28;20192;-64
2023/06/05 03:23:24;;;;;;;2.45;1.60;;;14.60;59.60;;;;;;5038003;28;20173;-66
2023/06/05 03:25:51;;;;;;;3.85;1.70;;;14.60;59.80;;;;;;5054089;28;20197;-65
2023/06/05 03:28:17;;;;;;;2.13;1.60;;;14.50;59.90;;;;;;5054995;28;20177;-65
2023/06/05 03:30:44;;;;;;;2.75;1.73;;;14.40;59.90;;;;;;5049197;28;20173;-65
2023/06/05 03:33:09;;;;;;;2.60;1.77;;;14.40;60.20;;;;;;5038223;28;20243;-64
2023/06/05 03:35:35;;;;;;;3.40;1.70;;;14.40;60.30;;;;;;5038743;28;20178;-66
2023/06/05 03:38:03;;;;;;;1.80;1.50;;;14.30;60.60;;;;;;5037849;28;20169;-65
2023/06/05 03:40:34;;;;;;;2.65;1.80;;;14.30;61.00;;;;;;5034297;28;20268;-66
2023/06/05 03:43:00;;;;;;;2.90;1.85;;;14.20;61.20;;;;;;5046970;28;20236;-65
2023/06/05 03:45:31;;;;;;;1.98;1.55;;;14.10;60.90;;;;;;5051716;28;20193;-65
2023/06/05 03:47:59;;;;;;;2.40;1.80;;;14.10;61.10;;;;;;5036570;28;20173;-65
2023/06/05 03:50:28;;;;;;;2.50;1.80;;;14.10;61.30;;;;;;5036190;28;20208;-62
2023/06/05 03:52:59;;;;;;;4.15;1.88;;;14.10;61.60;;;;;;5053685;28;20248;-66
2023/06/05 03:55:24;;;;;;;3.00;2.13;;;14.00;61.70;;;;;;5038782;28;20200;-66
2023/06/05 03:57:52;;;;;;;2.55;1.70;;;14.00;61.80;;;;;;5034391;28;20456;-65
2023/06/05 04:00:18;;;;;;;2.33;1.90;;;14.00;62.10;;;;;;5018477;28;20279;-66
2023/06/05 04:02:46;;;;;;;2.03;1.65;;;14.00;62.30;;;;;;5036462;28;20223;-65
2023/06/05 04:05:12;;;;;;;2.05;1.65;;;14.00;62.30;;;;;;5047315;28;20174;-66
2023/06/05 04:07:38;;;;;;;2.17;1.85;;;14.00;62.40;;;;;;5034194;28;20165;-65
2023/06/05 04:10:07;;;;;;;3.63;2.10;;;14.10;62.60;;;;;;5042831;28;20196;-65
2023/06/05 04:12:33;;;;;;;2.72;1.85;;;14.00;63.00;;;;;;5053814;28;20209;-64
2023/06/05 04:15:00;;;;;;;2.92;1.70;;;13.90;62.70;;;;;;5037521;28;20208;-66
2023/06/05 04:17:31;;;;;;;2.60;1.85;;;13.90;63.00;;;;;;5054444;28;20185;-65
2023/06/05 04:19:56;;;;;;;2.85;1.80;;;13.90;63.40;;;;;;5036764;28;20217;-64
2023/06/05 04:22:22;;;;;;;1.95;1.73;;;13.90;63.20;;;;;;5053542;28;20242;-66
2023/06/05 04:24:47;;;;;;;1.90;1.60;;;13.90;63.20;;;;;;5047226;28;20170;-66
2023/06/05 04:27:17;;;;;;;4.28;1.90;;;13.90;63.30;;;;;;5052958;28;20208;-65
2023/06/05 04:29:44;;;;;;;2.92;1.90;;;13.90;63.60;;;;;;5053278;28;20230;-65
2023/06/05 04:32:10;;;;;;;2.53;1.88;;;13.90;63.60;;;;;;5035895;28;20200;-65
2023/06/05 04:34:40;;;;;;;3.22;1.80;;;13.90;63.90;;;;;;5033193;28;20237;-66
2023/06/05 04:37:09;;;;;;;1.85;1.65;;;13.90;64.20;;;;;;5035615;28;20189;-64
2023/06/05 04:39:35;;;;;;;2.55;1.73;;;14.00;64.40;;;;;;5036197;28;20200;-66
2023/06/05 04:42:03;;;;;;;2.40;1.70;;;14.00;64.20;;;;;;5049553;28;20308;-65
2023/06/05 04:44:28;;;;;;;2.45;1.70;;;14.00;64.70;;;;;;5052367;28;20195;-66
2023/06/05 04:46:56;;;;;;;3.25;2.00;;;14.00;64.30;;;;;;5031804;28;20280;-67
2023/06/05 04:49:24;;;;;;;2.17;1.67;;;14.00;64.60;;;;;;5040808;28;20177;-65
2023/06/05 04:51:53;;;;;;;2.90;1.65;;;14.10;64.80;;;;;;5028199;28;20188;-65
2023/06/05 04:54:19;;;;;;;2.10;1.63;;;14.10;65.10;;;;;;5036057;28;20197;-66
2023/06/05 04:56:45;;;;;;;2.72;1.95;;;14.10;65.40;;;;;;5038176;28;20184;-64
2023/06/05 04:59:11;;;;;;;2.65;1.70;;;14.20;65.50;;;;;;5048683;28;20263;-66
2023/06/05 05:01:37;;;;;;;3.75;1.98;;;14.20;65.50;;;;;;5033276;28;20193;-67
2023/06/05 05:04:04;;;;;;;2.40;1.67;;;14.20;65.60;;;;;;5036320;28;20169;-66
2023/06/05 05:06:33;;;;;;;3.35;1.65;;;14.30;65.90;;;;;;5036303;28;20204;-67
2023/06/05 05:08:59;;;;;;;2.38;1.88;;;14.30;66.60;;;;;;5034664;28;20283;-66
2023/06/05 05:11:26;;;;;;;3.65;1.80;;;14.40;66.00;;;;;;5040908;28;20292;-65
2023/06/05 05:13:51;;;;;;;3.50;1.83;;;14.40;66.00;;;;;;5036033;28;20162;-66
2023/06/05 05:16:20;;;;;;;4.07;1.55;;;14.50;66.10;;;;;;5033235;28;20177;-66
2023/06/05 05:18:49;;;;;;;3.15;1.80;;;14.60;66.30;;;;;;5017054;28;20324;-66
2023/06/05 05:21:14;;;;;;;2.40;1.60;;;14.50;66.60;;;;;;5035280;28;20197;-66
2023/06/05 05:23:40;;;;;;;3.22;1.60;;;14.60;66.40;;;;;;5036459;28;20216;-66
2023/06/05 05:26:07;;;;;;;2.30;1.52;;;14.60;66.50;;;;;;5033255;28;20182;-66
2023/06/05 05:28:32;;;;;;;2.63;1.90;;;14.70;66.90;;;;;;5034950;28;20189;-63
2023/06/05 05:30:58;;;;;;;3.50;1.85;;;14.70;66.60;;;;;;5034894;28;20262;-66
2023/06/05 05:33:26;;;;;;;2.58;1.70;;;14.80;66.90;;;;;;5033527;28;20181;-66
2023/06/05 05:35:52;;;;;;;4.15;1.90;;;14.80;66.90;;;;;;5036687;28;20220;-67
2023/06/05 05:38:20;;;;;;;2.00;1.40;;;14.90;67.60;;;;;;5035458;28;20197;-66
2023/06/05 05:40:45;;;;;;;4.57;1.80;;;14.90;67.00;;;;;;5036535;28;20192;-66
2023/06/05 05:43:11;;;;;;;2.25;1.52;;;14.90;67.20;;;;;;5033139;28;20178;-66
2023/06/05 05:45:39;;;;;;;1.77;1.60;;;14.90;67.40;;;;;;5023455;28;20212;-65
2023/06/05 05:48:05;;;;;;;2.90;1.58;;;15.00;67.30;;;;;;5036455;28;20187;-66
2023/06/05 05:50:32;;;;;;;4.05;1.80;;;15.00;67.50;;;;;;5032298;28;20205;-65
2023/06/05 05:52:58;;;;;;;1.75;1.52;;;15.10;67.80;;;;;;5047090;28;20207;-67
2023/06/05 05:55:24;;;;;;;2.75;1.63;;;15.10;68.00;;;;;;5057115;28;20199;-66
2023/06/05 05:57:50;;;;;;;5.68;1.90;;;15.20;68.20;;;;;;5039842;28;20387;-66
2023/06/05 06:00:16;;;;;;;2.20;1.73;;;15.20;68.30;;;;;;5039801;28;20205;-66
2023/06/05 06:02:45;;;;;;;2.45;1.73;;;15.30;68.60;;;;;;5039996;28;20177;-66
2023/06/05 06:05:12;;;;;;;2.95;1.70;;;15.40;68.80;;;;;;5053509;28;20198;-66
2023/06/05 06:07:41;;;;;;;2.50;1.73;;;15.40;68.80;;;;;;5053603;28;20177;-66
2023/06/05 06:10:11;;;;;;;2.78;1.70;;;15.50;69.10;;;;;;5051774;28;20181;-65
2023/06/05 06:12:41;;;;;;;3.03;1.60;;;15.50;69.30;;;;;;5056302;28;20181;-64
2023/06/05 06:15:09;;;;;;;4.75;1.88;;;15.60;69.30;;;;;;5040362;28;20199;-67
2023/06/05 06:17:35;;;;;;;2.42;1.88;;;15.70;69.10;;;;;;5033233;28;20236;-66
2023/06/05 06:20:01;;;;;;;2.70;1.88;;;15.70;69.10;;;;;;5019837;28;20218;-67
2023/06/05 06:22:28;;;;;;;3.17;1.80;;;15.80;69.10;;;;;;5034739;28;20170;-67
2023/06/05 06:24:57;;;;;;;2.45;1.80;;;15.90;69.30;;;;;;5039319;28;20204;-67
2023/06/05 06:27:22;;;;;;;2.85;1.70;;;15.90;69.20;;;;;;5056573;28;20201;-67
2023/06/05 06:29:57;;;;;;;2.95;1.75;;;16.00;69.40;;;;;;5056144;28;20239;-67
2023/06/05 06:32:28;;;;;;;2.95;1.55;;;16.10;69.90;;;;;;5056248;28;20204;-66
2023/06/05 06:34:54;;;;;;;2.75;1.80;;;16.10;69.80;;;;;;5055844;28;20181;-66
2023/06/05 06:37:22;;;;;;;2.55;1.80;;;16.20;69.70;;;;;;5039430;28;20169;-67
2023/06/05 06:39:51;;;;;;;2.40;1.65;;;16.30;69.80;;;;;;5039026;28;20198;-66
2023/06/05 06:42:17;;;;;;;2.30;1.60;;;16.30;69.80;;;;;;5033632;28;20177;-67
2023/06/05 06:44:43;;;;;;;2.70;1.75;;;16.40;69.70;;;;;;5039098;28;20189;-66
2023/06/05 06:47:11;;;;;;;2.70;1.70;;;16.40;70.40;;;;;;5023195;28;20170;-62
2023/06/05 06:49:37;;;;;;;2.70;1.85;;;16.50;69.80;;;;;;5038744;28;20203;-66
2023/06/05 06:52:05;;;;;;;5.68;1.55;;;16.60;70.20;;;;;;5051847;28;20219;-66
2023/06/05 06:54:31;;;;;;;8.85;1.95;;;16.60;70.00;;;;;;5038724;28;20193;-65
2023/06/05 06:56:57;;;;;;;3.47;1.70;;;16.70;69.90;;;;;;5036822;28;20173;-65
2023/06/05 06:59:23;;;;;;;2.97;1.70;;;16.80;69.80;;;;;;5055898;28;20300;-67
2023/06/05 07:02:11;;;;;;;4.88;1.90;;;16.90;69.70;;;;;;5043395;28;20181;-67
2023/06/05 07:04:41;;;;;;;3.10;1.50;;;17.00;70.00;;;;;;5054502;28;20184;-67
2023/06/05 07:07:10;;;;;;;3.55;1.70;;;17.00;69.40;;;;;;5023872;28;20202;-65
2023/06/05 07:09:36;;;;;;;3.03;1.70;;;17.10;69.50;;;;;;5019707;28;20189;-67
2023/06/05 07:12:06;;;;;;;3.40;1.80;;;17.20;69.80;;;;;;5029301;28;20253;-66
2023/06/05 07:14:35;;;;;;;3.38;1.55;;;17.30;69.50;;;;;;5035786;28;20169;-67
2023/06/05 07:17:01;;;;;;;3.47;1.38;;;17.30;69.20;;;;;;5046061;28;20181;-66
2023/06/05 07:19:37;;;;;;;5.78;1.50;;;17.40;69.20;;;;;;5034870;28;20229;-66
2023/06/05 07:22:07;;;;;;;3.00;1.55;;;17.50;69.30;;;;;;5049279;28;20173;-67
2023/06/05 07:24:35;;;;;;;2.25;1.42;;;17.50;69.00;;;;;;5041441;28;20311;-66
2023/06/05 07:27:04;;;;;;;2.53;1.45;;;17.60;69.10;;;;;;5037209;28;20197;-66
2023/06/05 07:29:32;;;;;;;1.98;1.50;;;17.70;69.20;;;;;;5037788;28;20212;-66
2023/06/05 07:31:59;;;;;;;4.40;1.58;;;17.70;68.90;;;;;;5054470;28;20188;-67
2023/06/05 07:34:25;;;;;;;2.30;1.30;;;17.80;69.10;;;;;;5054284;28;20196;-66
2023/06/05 07:36:52;;;;;;;2.47;1.20;;;17.90;68.80;;;;;;5055096;28;20169;-66
2023/06/05 07:39:21;;;;;;;2.33;1.25;;;18.00;68.70;;;;;;5054633;28;20212;-65
2023/06/05 07:41:48;;;;;;;2.05;1.58;;;18.10;68.60;;;;;;5054417;28;20223;-62
2023/06/05 07:44:16;;;;;;;1.92;1.40;;;18.20;68.70;;;;;;5050993;28;20171;-67
2023/06/05 07:46:48;;;;;;;1.60;1.40;;;18.20;68.50;;;;;;5054684;28;20294;-65
2023/06/05 07:49:15;;;;;;;2.88;1.45;;;18.30;68.60;;;;;;5037798;28;20177;-65
2023/06/05 07:51:48;;;;;;;2.22;1.50;;;18.40;68.20;;;;;;5038176;28;20188;-65
2023/06/05 07:54:16;;;;;;;2.22;1.40;;;18.50;68.20;;;;;;5037293;28;20213;-66
2023/06/05 07:56:42;;;;;;;1.60;1.45;;;18.60;68.00;;;;;;5054866;28;20173;-66
2023/06/05 07:59:08;;;;;;;1.83;1.13;;;18.70;67.90;;;;;;5036786;28;20205;-64
2023/06/05 08:01:36;;;;;;;1.77;1.20;;;18.70;67.80;;;;;;5055506;28;20200;-66
2023/06/05 08:04:10;;;;;;;2.05;1.30;;;18.80;67.70;;;;;;5054350;28;20219;-66
2023/06/05 08:06:37;;;;;;;2.25;1.50;;;18.90;67.60;;;;;;5048926;28;20256;-65
2023/06/05 08:09:09;;;;;;;2.95;1.40;;;19.00;67.50;;;;;;5037450;28;20256;-66
2023/06/05 08:11:36;;;;;;;1.88;1.50;;;19.00;67.40;;;;;;5054723;28;20176;-66
2023/06/05 08:14:03;;;;;;;2.10;1.40;;;19.10;67.30;;;;;;5050550;28;20206;-65
2023/06/05 08:16:29;;;;;;;1.63;1.33;;;19.10;67.10;;;;;;5053423;28;20189;-65
2023/06/05 08:18:57;;;;;;;1.88;1.40;;;19.20;67.00;;;;;;5034316;28;20258;-64
2023/06/05 08:21:23;;;;;;;2.80;1.35;;;19.30;67.20;;;;;;5034439;28;20194;-66
2023/06/05 08:23:51;;;;;;;3.05;1.40;;;19.40;67.30;;;;;;5031698;28;20180;-65
2023/06/05 08:26:19;;;;;;;2.28;1.50;;;19.40;67.20;;;;;;5036976;28;20185;-66
2023/06/05 08:28:45;;;;;;;2.65;1.60;;;19.50;67.30;;;;;;5053710;28;20177;-64
2023/06/05 08:31:11;;;;;;;1.42;1.27;;;19.60;67.20;;;;;;5037105;28;20234;-66
2023/06/05 08:33:40;;;;;;;2.15;1.40;;;19.60;67.00;;;;;;5033577;28;20331;-66
2023/06/05 08:36:06;;;;;;;1.75;1.23;;;19.80;67.00;;;;;;5025662;28;20192;-66
2023/06/05 08:38:33;;;;;;;2.53;1.45;;;19.80;66.90;;;;;;5053997;28;20177;-66
2023/06/05 08:41:10;;;;;;;2.10;1.30;;;19.90;66.80;;;;;;5052813;28;20339;-66
2023/06/05 08:43:41;;;;;;;2.33;1.50;;;20.00;66.20;;;;;;5045211;28;20341;-66
2023/06/05 08:46:10;;;;;;;2.17;1.40;;;20.10;66.10;;;;;;5053918;28;20158;-66
2023/06/05 08:48:46;;;;;;;1.95;1.40;;;20.10;66.10;;;;;;5028169;28;20201;-65
2023/06/05 08:51:17;;;;;;;2.30;1.40;;;20.20;65.60;;;;;;5032714;28;20240;-65
2023/06/05 08:53:51;;;;;;;3.35;1.48;;;20.30;65.80;;;;;;5045133;28;20208;-66
2023/06/05 08:56:17;;;;;;;3.15;1.50;;;20.40;65.40;;;;;;5017822;28;20161;-66
2023/06/05 08:58:45;;;;;;;2.38;1.40;;;20.40;65.30;;;;;;5037708;28;20208;-66
2023/06/05 09:01:11;;;;;;;3.72;1.30;;;20.50;65.10;;;;;;5053601;28;20236;-66
2023/06/05 09:03:36;;;;;;;1.70;1.30;;;20.60;65.10;;;;;;5043788;28;20213;-67
2023/06/05 09:06:04;;;;;;;1.77;1.40;;;20.70;65.00;;;;;;5026727;28;20185;-66
2023/06/05 09:08:32;;;;;;;2.08;1.48;;;20.70;65.00;;;;;;5037139;28;20200;-65
2023/06/05 09:11:22;;;;;;;3.05;1.23;;;20.80;64.80;;;;;;5036957;28;20169;-66
2023/06/05 09:13:48;;;;;;;2.33;1.70;;;21.00;64.10;;;;;;5036908;28;20264;-64
2023/06/05 09:16:19;;;;;;;3.13;1.55;;;21.00;64.80;;;;;;5039921;28;20198;-66
2023/06/05 09:18:58;;;;;;;3.83;1.38;;;21.10;64.50;;;;;;5017435;28;20205;-65
2023/06/05 09:21:35;;;;;;;2.72;1.42;;;21.20;63.80;;;;;;5027077;28;20185;-66
2023/06/05 09:24:11;;;;;;;2.83;1.70;;;21.30;64.30;;;;;;5053991;28;20227;-66
2023/06/05 09:26:48;;;;;;;2.05;1.23;;;21.40;63.60;;;;;;5051560;28;20181;-66
2023/06/05 09:29:22;;;;;;;2.85;1.60;;;21.50;63.20;;;;;;5040319;28;20367;-66
2023/06/05 09:31:49;;;;;;;3.10;1.90;;;21.60;63.60;;;;;;5040862;28;20177;-63
2023/06/05 09:34:32;;;;;;;4.32;2.33;;;21.60;64.30;;;;;;5040313;28;20219;-66
2023/06/05 09:37:01;;;;;;;9.95;6.47;;;21.70;64.00;;;;;;5036592;28;20189;-64
2023/06/05 09:39:28;;;;;;;7.28;3.80;;;21.80;63.90;;;;;;5037600;28;20209;-67
2023/06/05 09:41:55;;;;;;;5.32;3.00;;;21.90;63.60;;;;;;5036904;28;20186;-66
2023/06/05 09:44:24;;;;;;;6.15;2.53;;;22.00;63.70;;;;;;5045573;28;20204;-67
2023/06/05 09:46:55;;;;;;;3.10;1.90;;;22.10;63.60;;;;;;5040137;28;20181;-66
2023/06/05 09:49:24;;;;;;;2.72;1.80;;;22.20;63.40;;;;;;5039854;28;20208;-66
2023/06/05 09:51:50;;;;;;;3.10;2.33;;;22.30;63.60;;;;;;5040658;28;20272;-66
2023/06/05 09:54:16;;;;;;;3.42;2.00;;;22.40;63.60;;;;;;5037059;28;20225;-66
2023/06/05 09:56:51;;;;;;;2.08;1.40;;;22.50;63.50;;;;;;5034612;28;20288;-66
2023/06/05 09:59:21;;;;;;;2.65;1.38;;;22.60;62.90;;;;;;5039708;28;20251;-64
2023/06/05 10:01:52;;;;;;;5.70;2.28;;;22.80;63.10;;;;;;5056851;28;20287;-66
2023/06/05 10:04:29;;;;;;;2.35;1.60;;;22.90;63.50;;;;;;5039337;28;20235;-66
2023/06/05 10:07:01;;;;;;;2.95;1.80;;;23.00;62.60;;;;;;5040351;28;20180;-67
2023/06/05 10:09:31;;;;;;;11.57;2.30;;;23.20;63.70;;;;;;5039947;28;20233;-67
2023/06/05 10:11:58;;;;;;;7.78;2.00;;;23.30;63.20;;;;;;5040092;28;20203;-66
2023/06/05 10:14:24;;;;;;;3.45;1.60;;;23.40;63.40;;;;;;5043942;28;20189;-66
2023/06/05 10:16:54;;;;;;;1.73;1.60;;;23.60;62.90;;;;;;5042823;28;20297;-65
2023/06/05 10:19:24;;;;;;;1.58;1.40;;;23.70;62.70;;;;;;5039807;28;20201;-65
2023/06/05 10:21:50;;;;;;;2.75;1.63;;;23.80;62.40;;;;;;5039719;28;20170;-67
2023/06/05 10:24:26;;;;;;;2.65;1.60;;;23.90;61.80;;;;;;5039665;28;20197;-66
2023/06/05 10:27:09;;;;;;;2.33;1.60;;;24.00;61.40;;;;;;5019951;28;20184;-66
2023/06/05 10:30:08;;;;;;;1.77;1.20;;;24.10;60.70;;;;;;5041766;28;20173;-66
2023/06/05 10:32:46;;;;;;;3.25;1.40;;;24.20;60.50;;;;;;5033706;28;20201;-67
2023/06/05 10:35:54;;;;;;;1.67;1.35;;;24.40;61.60;;;;;;5055768;28;20252;-66
2023/06/05 10:38:24;;;;;;;9.52;1.88;;;24.70;60.20;;;;;;5038953;28;20203;-66
2023/06/05 10:40:54;;;;;;;8.77;2.13;;;24.90;61.50;;;;;;5031851;28;20184;-65
2023/06/05 10:43:37;;;;;;;3.83;1.63;;;25.20;61.40;;;;;;5039168;28;20197;-64
2023/06/05 10:46:26;;;;;;;1.75;1.40;;;25.50;60.20;;;;;;5036072;28;20186;-67
2023/06/05 10:49:07;;;;;;;3.60;1.40;;;25.80;60.00;;;;;;5046011;28;20182;-66
2023/06/05 10:51:42;;;;;;;1.80;1.45;;;26.10;60.40;;;;;;5031517;28;20284;-67
2023/06/05 10:54:09;;;;;;;2.60;1.50;;;26.30;61.00;;;;;;5022981;28;20197;-65
2023/06/05 10:57:01;;;;;;;2.40;1.50;;;26.50;60.60;;;;;;5039211;28;20181;-66
2023/06/05 10:59:26;;;;;;;2.25;1.40;;;26.70;58.50;;;;;;5036977;28;20221;-65
2023/06/05 11:02:19;;;;;;;1.55;1.20;;;26.90;59.50;;;;;;5038866;28;20174;-66
2023/06/05 11:04:47;;;;;;;1.95;1.75;;;27.20;58.20;;;;;;5035809;28;20198;-66
2023/06/05 11:07:23;;;;;;;2.22;1.42;;;27.40;58.40;;;;;;5054649;28;20170;-67
2023/06/05 11:10:15;;;;;;;1.40;1.17;;;27.50;57.90;;;;;;5052607;28;20242;-66
2023/06/05 11:12:41;;;;;;;2.08;1.20;;;27.70;56.20;;;;;;5038790;28;20259;-66
2023/06/05 11:15:08;;;;;;;1.70;1.30;;;27.90;57.50;;;;;;5036359;28;20181;-66
2023/06/05 11:17:35;;;;;;;1.60;1.33;;;28.00;57.30;;;;;;5047628;28;20252;-66
2023/06/05 11:20:15;;;;;;;2.60;1.35;;;28.20;57.00;;;;;;5055311;28;20193;-67
2023/06/05 11:22:55;;;;;;;2.55;1.40;;;28.30;56.70;;;;;;5038510;28;20260;-67
2023/06/05 11:25:21;;;;;;;2.85;1.60;;;28.40;53.60;;;;;;5032127;28;20212;-67
2023/06/05 11:27:50;;;;;;;2.92;1.33;;;28.50;55.30;;;;;;5049166;28;20260;-67
2023/06/05 11:30:24;;;;;;;2.38;1.52;;;28.60;54.80;;;;;;5022757;28;20181;-67
2023/06/05 11:32:57;;;;;;;1.67;1.42;;;28.70;55.10;;;;;;5038763;28;20169;-66
2023/06/05 11:35:28;;;;;;;2.15;1.45;;;28.80;54.60;;;;;;5038118;28;20192;-67
2023/06/05 11:38:16;;;;;;;2.45;1.58;;;28.90;54.20;;;;;;5039028;28;20172;-66
2023/06/05 11:40:43;;;;;;;1.92;1.50;;;29.10;52.30;;;;;;5026826;28;20411;-65
2023/06/05 11:43:15;;;;;;;1.70;1.30;;;29.10;53.60;;;;;;5037625;28;20177;-66
2023/06/05 11:45:52;;;;;;;3.17;1.42;;;29.20;53.00;;;;;;5018390;28;20197;-66
2023/06/05 11:48:18;;;;;;;1.42;1.10;;;29.30;51.90;;;;;;5028994;28;20236;-67
2023/06/05 11:51:05;;;;;;;1.48;1.27;;;29.40;52.50;;;;;;5037209;28;20226;-67
2023/06/05 11:53:37;;;;;;;2.30;1.55;;;29.40;49.00;;;;;;5053883;28;20222;-66
2023/06/05 11:56:13;;;;;;;1.63;1.48;;;29.50;51.00;;;;;;5053829;28;20177;-67
2023/06/05 11:58:41;;;;;;;1.73;1.40;;;29.50;49.30;;;;;;5054364;28;20220;-67
2023/06/05 12:01:17;;;;;;;2.13;1.20;;;29.50;50.20;;;;;;5038267;28;20172;-65
2023/06/05 12:03:44;;;;;;;1.70;1.55;;;29.50;50.00;;;;;;5037983;28;20271;-66
2023/06/05 12:06:12;;;;;;;2.13;1.60;;;29.60;49.60;;;;;;5037635;28;20206;-67
2023/06/05 12:08:42;;;;;;;3.67;1.50;;;29.70;49.70;;;;;;5037966;28;20168;-67
2023/06/05 12:11:42;;;;;;;1.48;1.33;;;29.80;49.00;;;;;;5032105;28;20177;-67
2023/06/05 12:14:10;;;;;;;2.53;1.38;;;30.00;48.70;;;;;;4996650;28;20289;-68
2023/06/05 12:16:43;;;;;;;1.50;1.40;;;30.10;49.50;;;;;;5027677;28;20177;-67
2023/06/05 12:19:18;;;;;;;3.50;1.75;;;30.20;49.00;;;;;;5053140;28;20208;-67
2023/06/05 12:21:46;;;;;;;1.98;1.50;;;30.40;48.00;;;;;;5034256;28;20185;-67
2023/06/05 12:24:14;;;;;;;2.20;1.63;;;30.50;48.30;;;;;;5034666;28;20173;-66
2023/06/05 12:26:59;;;;;;;2.10;1.50;;;30.50;48.20;;;;;;5041905;28;20212;-66
2023/06/05 12:29:26;;;;;;;2.17;1.50;;;30.60;46.60;;;;;;5037553;28;20247;-67
2023/06/05 12:31:54;;;;;;;1.77;1.30;;;30.60;47.80;;;;;;5045059;28;20169;-69
2023/06/05 12:34:44;;;;;;;2.65;1.45;;;30.60;47.50;;;;;;5026103;28;20178;-67
2023/06/05 12:37:37;;;;;;;2.75;1.50;;;30.70;46.00;;;;;;5050595;28;20176;-67
2023/06/05 12:40:09;;;;;;;1.70;1.30;;;30.80;46.50;;;;;;5037280;28;20211;-67
2023/06/05 12:42:35;;;;;;;1.67;1.40;;;30.80;47.30;;;;;;5046763;28;20185;-66
2023/06/05 12:45:06;;;;;;;1.70;1.40;;;30.80;46.50;;;;;;5053647;28;20179;-67
2023/06/05 12:47:34;;;;;;;1.60;1.50;;;30.80;46.50;;;;;;5054148;28;20197;-67
2023/06/05 12:50:01;;;;;;;2.78;1.42;;;30.70;46.30;;;;;;5049112;28;20225;-67
2023/06/05 12:52:29;;;;;;;1.90;1.60;;;30.70;46.10;;;;;;5026341;28;20397;-67
2023/06/05 12:54:56;;;;;;;2.13;1.67;;;30.70;45.90;;;;;;5046211;28;20189;-67
2023/06/05 12:57:25;;;;;;;1.90;1.52;;;30.60;44.90;;;;;;5054997;28;20173;-67
2023/06/05 12:59:53;;;;;;;1.60;1.50;;;30.50;44.90;;;;;;5054243;28;20209;-68